sensor_id;sensor_type;location;lat;lon;timestamp;pressure;altitude;pressure_sealevel;temperature;humidity
59682;BME280;45548;39.530;-9.118;2022-08-04T08:04:06;100813.66;;;18.66;100.00
59682;BME280;45548;39.530;-9.118;2022-08-04T08:06:35;100817.94;;;18.97;100.00
59682;BME280;45548;39.530;-9.118;2022-08-04T08:09:16;100813.16;;;19.17;100.00
59682;BME280;45548;39.530;-9.118;2022-08-04T08:11:43;100808.34;;;19.38;100.00
59682;BME280;45548;39.530;-9.118;2022-08-04T08:14:09;100806.72;;;19.48;100.00
59682;BME280;45548;39.530;-9.118;2022-08-04T08:16:36;100808.94;;;19.63;100.00
59682;BME280;45548;39.530;-9.118;2022-08-04T08:19:02;100806.63;;;19.78;100.00
59682;BME280;45548;39.530;-9.118;2022-08-04T08:21:28;100810.41;;;19.94;99.95
59682;BME280;45548;39.530;-9.118;2022-08-04T08:23:54;100810.84;;;20.03;98.16
59682;BME280;45548;39.530;-9.118;2022-08-04T08:26:20;100817.50;;;20.17;97.30
59682;BME280;45548;39.530;-9.118;2022-08-04T08:28:46;100810.47;;;20.23;95.47
59682;BME280;45548;39.530;-9.118;2022-08-04T08:31:11;100818.66;;;20.33;96.12
59682;BME280;45548;39.530;-9.118;2022-08-04T08:33:37;100813.75;;;20.41;93.93
59682;BME280;45548;39.530;-9.118;2022-08-04T08:39:09;100812.94;;;20.53;92.29
59682;BME280;45548;39.530;-9.118;2022-08-04T08:53:26;100810.88;;;21.17;89.54
59682;BME280;45548;39.530;-9.118;2022-08-04T08:56:16;100812.75;;;21.33;87.68
59682;BME280;45548;39.530;-9.118;2022-08-04T09:15:36;100815.41;;;21.89;82.17
59682;BME280;45548;39.530;-9.118;2022-08-04T09:20:55;100826.91;;;22.11;80.98
59682;BME280;45548;39.530;-9.118;2022-08-04T09:26:20;100826.22;;;22.43;80.53
59682;BME280;45548;39.530;-9.118;2022-08-04T09:29:12;100826.66;;;22.61;78.78
59682;BME280;45548;39.530;-9.118;2022-08-04T09:40:05;100830.31;;;23.04;74.81
59682;BME280;45548;39.530;-9.118;2022-08-04T09:45:40;100829.25;;;23.37;73.22
59682;BME280;45548;39.530;-9.118;2022-08-04T09:48:12;100833.84;;;23.47;73.95
59682;BME280;45548;39.530;-9.118;2022-08-04T09:50:41;100828.50;;;23.47;72.32
59682;BME280;45548;39.530;-9.118;2022-08-04T09:56:09;100828.63;;;23.62;71.87
59682;BME280;45548;39.530;-9.118;2022-08-04T10:01:18;100839.97;;;23.80;71.98
59682;BME280;45548;39.530;-9.118;2022-08-04T10:03:49;100838.66;;;23.87;71.77
59682;BME280;45548;39.530;-9.118;2022-08-04T10:11:32;100846.91;;;24.33;69.43
59682;BME280;45548;39.530;-9.118;2022-08-04T10:14:04;100845.91;;;24.55;68.66
59682;BME280;45548;39.530;-9.118;2022-08-04T10:19:27;100846.78;;;24.91;66.71
59682;BME280;45548;39.530;-9.118;2022-08-04T10:22:22;100848.38;;;24.97;66.50
59682;BME280;45548;39.530;-9.118;2022-08-04T10:27:45;100860.59;;;24.52;67.59
59682;BME280;45548;39.530;-9.118;2022-08-04T10:30:16;100849.97;;;24.67;68.04
59682;BME280;45548;39.530;-9.118;2022-08-04T10:35:54;100857.44;;;24.60;67.63
59682;BME280;45548;39.530;-9.118;2022-08-04T10:38:41;100855.81;;;24.54;67.78
59682;BME280;45548;39.530;-9.118;2022-08-04T10:41:32;100861.31;;;24.32;68.16
59682;BME280;45548;39.530;-9.118;2022-08-04T10:47:12;100859.50;;;24.43;68.34
59682;BME280;45548;39.530;-9.118;2022-08-04T10:49:54;100861.38;;;24.42;67.51
59682;BME280;45548;39.530;-9.118;2022-08-04T10:52:33;100863.25;;;24.52;67.59
59682;BME280;45548;39.530;-9.118;2022-08-04T10:55:19;100863.25;;;24.47;67.21
59682;BME280;45548;39.530;-9.118;2022-08-04T10:57:57;100867.53;;;24.43;68.34
59682;BME280;45548;39.530;-9.118;2022-08-04T11:00:25;100860.34;;;24.59;68.19
59682;BME280;45548;39.530;-9.118;2022-08-04T11:03:00;100857.75;;;24.99;66.28
59682;BME280;45548;39.530;-9.118;2022-08-04T11:05:38;100860.22;;;25.21;65.71
59682;BME280;45548;39.530;-9.118;2022-08-04T11:08:10;100863.94;;;25.15;65.16
59682;BME280;45548;39.530;-9.118;2022-08-04T11:10:44;100865.56;;;25.16;64.54
59682;BME280;45548;39.530;-9.118;2022-08-04T11:13:14;100865.00;;;25.24;64.64
59682;BME280;45548;39.530;-9.118;2022-08-04T11:15:45;100867.16;;;25.43;64.93
59682;BME280;45548;39.530;-9.118;2022-08-04T11:21:13;100869.28;;;25.51;63.72
59682;BME280;45548;39.530;-9.118;2022-08-04T11:23:55;100873.31;;;25.33;64.01
59682;BME280;45548;39.530;-9.118;2022-08-04T11:26:53;100874.38;;;25.37;64.30
59682;BME280;45548;39.530;-9.118;2022-08-04T11:31:44;100872.75;;;25.00;64.58
59682;BME280;45548;39.530;-9.118;2022-08-04T11:34:20;100872.69;;;24.85;64.87
59682;BME280;45548;39.530;-9.118;2022-08-04T11:37:40;100879.44;;;24.93;65.06
59682;BME280;45548;39.530;-9.118;2022-08-04T11:40:05;100879.41;;;24.88;64.91
59682;BME280;45548;39.530;-9.118;2022-08-04T11:42:37;100884.69;;;24.72;65.24
59682;BME280;45548;39.530;-9.118;2022-08-04T11:45:11;100877.25;;;24.80;65.26
59682;BME280;45548;39.530;-9.118;2022-08-04T11:50:20;100874.91;;;25.09;64.44
59682;BME280;45548;39.530;-9.118;2022-08-04T11:52:51;100871.97;;;25.15;64.76
59682;BME280;45548;39.530;-9.118;2022-08-04T11:55:19;100868.75;;;25.49;63.00
59682;BME280;45548;39.530;-9.118;2022-08-04T11:57:47;100875.38;;;26.02;61.39
59682;BME280;45548;39.530;-9.118;2022-08-04T12:00:14;100869.66;;;26.29;60.34
59682;BME280;45548;39.530;-9.118;2022-08-04T12:05:20;100869.66;;;26.84;58.95
59682;BME280;45548;39.530;-9.118;2022-08-04T12:11:04;100863.84;;;27.11;57.36
59682;BME280;45548;39.530;-9.118;2022-08-04T12:14:09;100868.34;;;27.15;58.00
59682;BME280;45548;39.530;-9.118;2022-08-04T12:22:18;100868.34;;;27.15;57.22
59682;BME280;45548;39.530;-9.118;2022-08-04T12:24:52;100880.28;;;26.99;57.38
59682;BME280;45548;39.530;-9.118;2022-08-04T12:27:34;100884.31;;;26.97;57.41
59682;BME280;45548;39.530;-9.118;2022-08-04T12:30:01;100881.97;;;26.85;57.85
59682;BME280;45548;39.530;-9.118;2022-08-04T12:32:36;100879.44;;;27.04;57.49
59682;BME280;45548;39.530;-9.118;2022-08-04T12:35:25;100877.88;;;27.37;55.71
59682;BME280;45548;39.530;-9.118;2022-08-04T12:38:02;100880.63;;;27.56;55.24
59682;BME280;45548;39.530;-9.118;2022-08-04T12:43:26;100876.84;;;27.57;55.33
59682;BME280;45548;39.530;-9.118;2022-08-04T12:46:03;100875.31;;;28.03;54.20
59682;BME280;45548;39.530;-9.118;2022-08-04T12:48:31;100871.31;;;28.25;54.33
59682;BME280;45548;39.530;-9.118;2022-08-04T12:50:57;100881.41;;;28.76;53.13
59682;BME280;45548;39.530;-9.118;2022-08-04T12:53:31;100873.28;;;28.81;52.22
59682;BME280;45548;39.530;-9.118;2022-08-04T12:55:57;100875.16;;;28.80;52.27
59682;BME280;45548;39.530;-9.118;2022-08-04T12:58:25;100875.38;;;28.46;52.83
59682;BME280;45548;39.530;-9.118;2022-08-04T13:01:02;100880.13;;;28.07;53.54
59682;BME280;45548;39.530;-9.118;2022-08-04T13:03:36;100880.59;;;27.61;54.83
59682;BME280;45548;39.530;-9.118;2022-08-04T13:06:03;100887.22;;;27.73;55.30
59682;BME280;45548;39.530;-9.118;2022-08-04T13:08:35;100878.44;;;27.92;54.43
59682;BME280;45548;39.530;-9.118;2022-08-04T13:11:02;100879.94;;;28.22;53.72
59682;BME280;45548;39.530;-9.118;2022-08-04T13:13:33;100876.00;;;28.38;52.80
59682;BME280;45548;39.530;-9.118;2022-08-04T13:16:05;100878.28;;;28.26;53.41
59682;BME280;45548;39.530;-9.118;2022-08-04T13:18:35;100883.22;;;28.43;53.07
59682;BME280;45548;39.530;-9.118;2022-08-04T13:21:15;100882.06;;;28.87;51.70
59682;BME280;45548;39.530;-9.118;2022-08-04T13:23:43;100870.72;;;29.08;51.26
59682;BME280;45548;39.530;-9.118;2022-08-04T13:26:14;100873.75;;;28.64;51.30
59682;BME280;45548;39.530;-9.118;2022-08-04T13:28:43;100866.69;;;28.31;53.31
59682;BME280;45548;39.530;-9.118;2022-08-04T13:31:18;100866.19;;;28.05;54.22
59682;BME280;45548;39.530;-9.118;2022-08-04T13:33:53;100866.94;;;28.29;53.29
59682;BME280;45548;39.530;-9.118;2022-08-04T13:36:24;100866.50;;;28.65;52.03
59682;BME280;45548;39.530;-9.118;2022-08-04T13:38:54;100867.81;;;28.86;51.26
59682;BME280;45548;39.530;-9.118;2022-08-04T13:41:21;100866.50;;;28.83;50.77
59682;BME280;45548;39.530;-9.118;2022-08-04T13:43:55;100860.19;;;28.55;51.77
59682;BME280;45548;39.530;-9.118;2022-08-04T13:46:27;100858.72;;;28.44;52.02
59682;BME280;45548;39.530;-9.118;2022-08-04T13:48:55;100873.16;;;28.06;52.99
59682;BME280;45548;39.530;-9.118;2022-08-04T13:51:22;100862.25;;;27.73;53.94
59682;BME280;45548;39.530;-9.118;2022-08-04T13:53:57;100862.22;;;27.44;55.02
59682;BME280;45548;39.530;-9.118;2022-08-04T13:56:37;100863.63;;;27.36;54.26
59682;BME280;45548;39.530;-9.118;2022-08-04T13:59:09;100865.75;;;27.39;54.59
59682;BME280;45548;39.530;-9.118;2022-08-04T14:01:37;100854.91;;;27.20;55.06
59682;BME280;45548;39.530;-9.118;2022-08-04T14:04:17;100859.25;;;26.77;56.20
59682;BME280;45548;39.530;-9.118;2022-08-04T14:06:57;100861.59;;;26.39;57.97
59682;BME280;45548;39.530;-9.118;2022-08-04T14:09:25;100853.44;;;26.60;57.27
59682;BME280;45548;39.530;-9.118;2022-08-04T14:11:55;100854.34;;;26.84;57.19
59682;BME280;45548;39.530;-9.118;2022-08-04T14:14:30;100857.63;;;26.76;56.64
59682;BME280;45548;39.530;-9.118;2022-08-04T14:17:01;100852.22;;;26.81;56.61
59682;BME280;45548;39.530;-9.118;2022-08-04T14:19:29;100850.22;;;26.58;56.69
59682;BME280;45548;39.530;-9.118;2022-08-04T14:25:07;100852.06;;;26.03;58.93
59682;BME280;45548;39.530;-9.118;2022-08-04T14:27:51;100847.28;;;25.84;59.25
59682;BME280;45548;39.530;-9.118;2022-08-04T14:30:24;100853.19;;;25.71;59.72
59682;BME280;45548;39.530;-9.118;2022-08-04T14:33:05;100848.63;;;25.67;60.32
59682;BME280;45548;39.530;-9.118;2022-08-04T14:35:32;100852.66;;;25.64;60.11
59682;BME280;45548;39.530;-9.118;2022-08-04T14:38:01;100849.47;;;25.77;59.74
59682;BME280;45548;39.530;-9.118;2022-08-04T14:40:29;100847.00;;;25.86;59.90
59682;BME280;45548;39.530;-9.118;2022-08-04T14:42:57;100845.13;;;25.92;59.15
59682;BME280;45548;39.530;-9.118;2022-08-04T14:45:37;100848.63;;;25.67;60.64
59682;BME280;45548;39.530;-9.118;2022-08-04T14:48:08;100840.38;;;25.53;60.55
59682;BME280;45548;39.530;-9.118;2022-08-04T14:53:20;100832.31;;;25.68;60.15
59682;BME280;45548;39.530;-9.118;2022-08-04T14:55:54;100831.84;;;25.30;60.93
59682;BME280;45548;39.530;-9.118;2022-08-04T14:58:29;100834.75;;;24.98;62.24
59682;BME280;45548;39.530;-9.118;2022-08-04T15:00:57;100833.38;;;24.60;63.24
59682;BME280;45548;39.530;-9.118;2022-08-04T15:03:23;100839.13;;;24.27;64.49
59682;BME280;45548;39.530;-9.118;2022-08-04T15:05:50;100835.84;;;24.14;64.84
59682;BME280;45548;39.530;-9.118;2022-08-04T15:08:18;100826.41;;;23.96;66.18
59682;BME280;45548;39.530;-9.118;2022-08-04T15:10:44;100836.03;;;23.55;66.99
59682;BME280;45548;39.530;-9.118;2022-08-04T15:13:10;100835.94;;;23.40;68.02
59682;BME280;45548;39.530;-9.118;2022-08-04T15:15:38;100849.00;;;23.41;68.03
59682;BME280;45548;39.530;-9.118;2022-08-04T15:18:08;100846.81;;;23.33;68.19
59682;BME280;45548;39.530;-9.118;2022-08-04T15:20:34;100836.91;;;23.29;68.49
59682;BME280;45548;39.530;-9.118;2022-08-04T15:23:01;100837.38;;;23.21;69.30
59682;BME280;45548;39.530;-9.118;2022-08-04T15:25:32;100833.59;;;23.16;69.30
59682;BME280;45548;39.530;-9.118;2022-08-04T15:27:59;100841.41;;;23.23;69.38
59682;BME280;45548;39.530;-9.118;2022-08-04T15:30:26;100831.78;;;23.22;69.05
59682;BME280;45548;39.530;-9.118;2022-08-04T15:32:59;100842.38;;;23.12;69.66
59682;BME280;45548;39.530;-9.118;2022-08-04T15:35:26;100829.69;;;22.92;69.58
59682;BME280;45548;39.530;-9.118;2022-08-04T15:43:09;100843.56;;;22.94;70.46
59682;BME280;45548;39.530;-9.118;2022-08-04T15:45:55;100841.81;;;23.42;69.01
59682;BME280;45548;39.530;-9.118;2022-08-04T15:48:28;100837.41;;;24.00;66.63
59682;BME280;45548;39.530;-9.118;2022-08-04T15:53:20;100833.88;;;24.57;64.53
59682;BME280;45548;39.530;-9.118;2022-08-04T15:55:45;100841.97;;;24.88;63.01
59682;BME280;45548;39.530;-9.118;2022-08-04T15:58:12;100837.16;;;24.90;62.60
59682;BME280;45548;39.530;-9.118;2022-08-04T16:16:30;100826.38;;;25.86;59.38
59682;BME280;45548;39.530;-9.118;2022-08-04T16:19:34;100825.94;;;25.54;60.49
59682;BME280;45548;39.530;-9.118;2022-08-04T16:22:37;100822.91;;;25.86;59.94
59682;BME280;45548;39.530;-9.118;2022-08-04T16:25:05;100827.38;;;26.06;58.79
59682;BME280;45548;39.530;-9.118;2022-08-04T16:27:35;100819.31;;;26.16;58.55
59682;BME280;45548;39.530;-9.118;2022-08-04T16:30:03;100824.50;;;25.97;59.05
59682;BME280;45548;39.530;-9.118;2022-08-04T16:32:39;100822.03;;;26.06;59.34
59682;BME280;45548;39.530;-9.118;2022-08-04T16:35:18;100821.53;;;25.94;59.00
59682;BME280;45548;39.530;-9.118;2022-08-04T16:37:44;100812.78;;;25.63;59.63
59682;BME280;45548;39.530;-9.118;2022-08-04T16:40:32;100814.38;;;25.58;60.28
59682;BME280;45548;39.530;-9.118;2022-08-04T16:43:16;100821.38;;;25.39;60.65
59682;BME280;45548;39.530;-9.118;2022-08-04T16:48:12;100810.97;;;25.17;61.25
59682;BME280;45548;39.530;-9.118;2022-08-04T16:50:52;100805.31;;;24.83;62.52
59682;BME280;45548;39.530;-9.118;2022-08-04T16:53:19;100803.44;;;24.68;63.53
59682;BME280;45548;39.530;-9.118;2022-08-04T16:55:50;100803.94;;;24.65;63.36
59682;BME280;45548;39.530;-9.118;2022-08-04T16:58:17;100797.78;;;24.39;64.29
59682;BME280;45548;39.530;-9.118;2022-08-04T17:00:48;100797.78;;;24.39;64.10
59682;BME280;45548;39.530;-9.118;2022-08-04T17:03:13;100797.91;;;24.17;64.81
59682;BME280;45548;39.530;-9.118;2022-08-04T17:05:39;100792.03;;;24.15;65.54
59682;BME280;45548;39.530;-9.118;2022-08-04T17:08:06;100787.25;;;24.12;65.32
59682;BME280;45548;39.530;-9.118;2022-08-04T17:15:49;100800.59;;;24.17;65.36
59682;BME280;45548;39.530;-9.118;2022-08-04T17:18:41;100795.28;;;24.22;65.35
59682;BME280;45548;39.530;-9.118;2022-08-04T17:21:14;100779.97;;;24.03;65.64
59682;BME280;45548;39.530;-9.118;2022-08-04T17:23:41;100791.47;;;23.98;66.23
59682;BME280;45548;39.530;-9.118;2022-08-04T17:26:19;100783.88;;;23.75;66.90
59682;BME280;45548;39.530;-9.118;2022-08-04T17:28:49;100786.94;;;23.56;67.88
59682;BME280;45548;39.530;-9.118;2022-08-04T17:31:15;100789.00;;;23.44;68.44
59682;BME280;45548;39.530;-9.118;2022-08-04T17:33:47;100791.91;;;23.42;68.21
59682;BME280;45548;39.530;-9.118;2022-08-04T17:36:14;100790.53;;;23.35;68.82
59682;BME280;45548;39.530;-9.118;2022-08-04T17:38:45;100786.31;;;23.39;69.12
59682;BME280;45548;39.530;-9.118;2022-08-04T17:41:13;100790.03;;;23.38;68.64
59682;BME280;45548;39.530;-9.118;2022-08-04T17:43:58;100794.81;;;23.36;68.96
59682;BME280;45548;39.530;-9.118;2022-08-04T17:51:37;100794.16;;;23.19;70.43
59682;BME280;45548;39.530;-9.118;2022-08-04T17:54:03;100796.84;;;23.19;70.50
59682;BME280;45548;39.530;-9.118;2022-08-04T17:59:15;100803.59;;;22.99;71.07
59682;BME280;45548;39.530;-9.118;2022-08-04T18:01:50;100804.56;;;22.88;72.07
59682;BME280;45548;39.530;-9.118;2022-08-04T18:04:35;100798.28;;;22.72;72.73
59682;BME280;45548;39.530;-9.118;2022-08-04T18:07:11;100793.75;;;22.73;72.64
59682;BME280;45548;39.530;-9.118;2022-08-04T18:09:40;100777.91;;;22.34;73.77
59682;BME280;45548;39.530;-9.118;2022-08-04T18:12:07;100797.16;;;22.41;74.39
59682;BME280;45548;39.530;-9.118;2022-08-04T18:14:44;100787.59;;;22.18;74.89
59682;BME280;45548;39.530;-9.118;2022-08-04T18:17:11;100776.56;;;22.10;75.44
59682;BME280;45548;39.530;-9.118;2022-08-04T18:19:48;100782.44;;;22.12;76.03
59682;BME280;45548;39.530;-9.118;2022-08-04T18:22:15;100790.84;;;22.03;76.39
59682;BME280;45548;39.530;-9.118;2022-08-04T18:24:41;100785.50;;;22.03;76.62
59682;BME280;45548;39.530;-9.118;2022-08-04T18:27:06;100807.38;;;22.05;76.82
59682;BME280;45548;39.530;-9.118;2022-08-04T18:29:33;100789.53;;;21.84;77.27
59682;BME280;45548;39.530;-9.118;2022-08-04T18:31:59;100783.94;;;21.64;78.17
59682;BME280;45548;39.530;-9.118;2022-08-04T18:34:24;100788.72;;;21.62;78.22
59682;BME280;45548;39.530;-9.118;2022-08-04T18:36:50;100808.34;;;21.61;78.85
59682;BME280;45548;39.530;-9.118;2022-08-04T18:39:16;100786.13;;;21.33;79.18
59682;BME280;45548;39.530;-9.118;2022-08-04T18:41:43;100814.75;;;21.43;79.76
59682;BME280;45548;39.530;-9.118;2022-08-04T18:44:09;100811.84;;;21.27;80.57
59682;BME280;45548;39.530;-9.118;2022-08-04T18:46:35;100809.66;;;21.24;80.71
59682;BME280;45548;39.530;-9.118;2022-08-04T18:49:00;100813.63;;;21.22;80.49
59682;BME280;45548;39.530;-9.118;2022-08-04T18:51:26;100819.50;;;21.24;80.79
59682;BME280;45548;39.530;-9.118;2022-08-04T18:53:52;100827.22;;;21.09;81.40
59682;BME280;45548;39.530;-9.118;2022-08-04T18:56:18;100826.72;;;20.95;82.38
59682;BME280;45548;39.530;-9.118;2022-08-04T18:58:44;100826.63;;;20.90;82.21
59682;BME280;45548;39.530;-9.118;2022-08-04T19:01:09;100829.44;;;20.83;82.09
59682;BME280;45548;39.530;-9.118;2022-08-04T19:03:39;100822.69;;;20.64;82.86
59682;BME280;45548;39.530;-9.118;2022-08-04T19:06:05;100836.47;;;20.61;83.12
59682;BME280;45548;39.530;-9.118;2022-08-04T19:08:33;100820.69;;;20.42;83.55
59682;BME280;45548;39.530;-9.118;2022-08-04T19:10:59;100818.97;;;20.36;83.77
59682;BME280;45548;39.530;-9.118;2022-08-04T19:13:25;100827.50;;;20.38;84.18
59682;BME280;45548;39.530;-9.118;2022-08-04T19:15:52;100828.47;;;20.32;83.90
59682;BME280;45548;39.530;-9.118;2022-08-04T19:18:20;100839.88;;;20.33;84.44
59682;BME280;45548;39.530;-9.118;2022-08-04T19:20:45;100829.28;;;20.21;84.36
59682;BME280;45548;39.530;-9.118;2022-08-04T19:23:11;100843.69;;;20.25;85.42
59682;BME280;45548;39.530;-9.118;2022-08-04T19:25:37;100845.78;;;20.23;84.98
59682;BME280;45548;39.530;-9.118;2022-08-04T19:28:03;100837.69;;;20.18;85.39
59682;BME280;45548;39.530;-9.118;2022-08-04T19:30:29;100836.91;;;20.17;85.84
59682;BME280;45548;39.530;-9.118;2022-08-04T19:32:54;100827.69;;;19.97;86.12
59682;BME280;45548;39.530;-9.118;2022-08-04T19:35:20;100842.00;;;20.07;86.13
59682;BME280;45548;39.530;-9.118;2022-08-04T19:37:46;100840.59;;;20.05;86.66
59682;BME280;45548;39.530;-9.118;2022-08-04T19:40:11;100848.38;;;19.95;86.71
59682;BME280;45548;39.530;-9.118;2022-08-04T19:42:37;100841.91;;;19.90;87.16
59682;BME280;45548;39.530;-9.118;2022-08-04T19:45:05;100848.13;;;19.84;87.75
59682;BME280;45548;39.530;-9.118;2022-08-04T19:47:30;100842.13;;;19.77;87.65
59682;BME280;45548;39.530;-9.118;2022-08-04T19:49:59;100836.13;;;19.70;88.06
59682;BME280;45548;39.530;-9.118;2022-08-04T19:52:29;100832.91;;;19.68;88.53
59682;BME280;45548;39.530;-9.118;2022-08-04T19:54:55;100834.53;;;19.69;88.55
59682;BME280;45548;39.530;-9.118;2022-08-04T19:57:21;100834.53;;;19.69;88.57
59682;BME280;45548;39.530;-9.118;2022-08-04T19:59:46;100839.38;;;19.72;88.80
59682;BME280;45548;39.530;-9.118;2022-08-04T20:02:12;100853.78;;;19.76;89.27
59682;BME280;45548;39.530;-9.118;2022-08-04T20:04:38;100853.69;;;19.71;89.54
59682;BME280;45548;39.530;-9.118;2022-08-04T20:07:04;100860.13;;;19.75;89.99
59682;BME280;45548;39.530;-9.118;2022-08-04T20:09:32;100832.72;;;19.58;90.13
59682;BME280;45548;39.530;-9.118;2022-08-04T20:11:57;100846.53;;;19.60;89.78
59682;BME280;45548;39.530;-9.118;2022-08-04T20:14:25;100867.88;;;19.65;90.29
59682;BME280;45548;39.530;-9.118;2022-08-04T20:16:52;100868.78;;;19.71;89.79
59682;BME280;45548;39.530;-9.118;2022-08-04T20:19:20;100869.00;;;19.69;89.64
59682;BME280;45548;39.530;-9.118;2022-08-04T20:21:46;100868.66;;;19.77;89.61
59682;BME280;45548;39.530;-9.118;2022-08-04T20:24:12;100866.84;;;19.66;89.82
59682;BME280;45548;39.530;-9.118;2022-08-04T20:26:40;100890.94;;;19.76;90.28
59682;BME280;45548;39.530;-9.118;2022-08-04T20:29:11;100878.13;;;19.73;90.06
59682;BME280;45548;39.530;-9.118;2022-08-04T20:31:39;100887.34;;;19.82;89.55
59682;BME280;45548;39.530;-9.118;2022-08-04T20:34:05;100887.03;;;19.79;90.16
59682;BME280;45548;39.530;-9.118;2022-08-04T20:36:30;100883.88;;;19.70;89.93
59682;BME280;45548;39.530;-9.118;2022-08-04T20:38:58;100872.25;;;19.59;90.47
59682;BME280;45548;39.530;-9.118;2022-08-04T20:41:24;100886.53;;;19.70;90.60
59682;BME280;45548;39.530;-9.118;2022-08-04T20:43:49;100891.84;;;19.82;90.20
59682;BME280;45548;39.530;-9.118;2022-08-04T20:46:16;100881.84;;;19.72;90.09
59682;BME280;45548;39.530;-9.118;2022-08-04T20:48:43;100895.56;;;19.81;89.89
59682;BME280;45548;39.530;-9.118;2022-08-04T20:51:09;100875.84;;;19.65;89.75
59682;BME280;45548;39.530;-9.118;2022-08-04T20:53:34;100889.44;;;19.69;90.21
59682;BME280;45548;39.530;-9.118;2022-08-04T20:56:00;100902.34;;;19.77;90.23
59682;BME280;45548;39.530;-9.118;2022-08-04T20:58:25;100887.59;;;19.69;90.60
59682;BME280;45548;39.530;-9.118;2022-08-04T21:00:51;100896.13;;;19.71;91.19
59682;BME280;45548;39.530;-9.118;2022-08-04T21:03:16;100902.59;;;19.75;91.25
59682;BME280;45548;39.530;-9.118;2022-08-04T21:05:42;100903.38;;;19.76;91.21
59682;BME280;45548;39.530;-9.118;2022-08-04T21:08:07;100891.84;;;19.70;91.44
59682;BME280;45548;39.530;-9.118;2022-08-04T21:10:33;100909.72;;;19.75;91.23
59682;BME280;45548;39.530;-9.118;2022-08-04T21:12:58;100911.91;;;19.78;91.48
59682;BME280;45548;39.530;-9.118;2022-08-04T21:15:24;100914.81;;;19.76;91.94
59682;BME280;45548;39.530;-9.118;2022-08-04T21:17:54;100919.88;;;19.78;91.99
59682;BME280;45548;39.530;-9.118;2022-08-04T21:20:20;100924.28;;;19.72;91.99
59682;BME280;45548;39.530;-9.118;2022-08-04T21:22:47;100917.81;;;19.68;91.91
59682;BME280;45548;39.530;-9.118;2022-08-04T21:25:13;100924.59;;;19.64;92.13
59682;BME280;45548;39.530;-9.118;2022-08-04T21:27:38;100913.06;;;19.58;92.35
59682;BME280;45548;39.530;-9.118;2022-08-04T21:30:04;100925.63;;;19.63;92.30
59682;BME280;45548;39.530;-9.118;2022-08-04T21:32:30;100913.97;;;19.64;92.49
59682;BME280;45548;39.530;-9.118;2022-08-04T21:34:56;100911.69;;;19.68;92.43
59682;BME280;45548;39.530;-9.118;2022-08-04T21:37:22;100905.56;;;19.67;92.08
59682;BME280;45548;39.530;-9.118;2022-08-04T21:39:47;100912.38;;;19.75;91.65
59682;BME280;45548;39.530;-9.118;2022-08-04T21:42:13;100907.09;;;19.75;92.00
59682;BME280;45548;39.530;-9.118;2022-08-04T21:44:38;100910.09;;;19.78;92.13
59682;BME280;45548;39.530;-9.118;2022-08-04T21:47:04;100902.94;;;19.79;91.75
59682;BME280;45548;39.530;-9.118;2022-08-04T21:49:30;100906.97;;;19.81;91.50
59682;BME280;45548;39.530;-9.118;2022-08-04T21:51:55;100905.81;;;19.77;91.62
59682;BME280;45548;39.530;-9.118;2022-08-04T21:54:21;100908.81;;;19.69;92.06
59682;BME280;45548;39.530;-9.118;2022-08-04T21:56:46;100904.66;;;19.73;92.41
59682;BME280;45548;39.530;-9.118;2022-08-04T21:59:12;100910.53;;;19.75;92.48
59682;BME280;45548;39.530;-9.118;2022-08-04T22:01:37;100898.31;;;19.74;92.14
59682;BME280;45548;39.530;-9.118;2022-08-04T22:04:03;100902.00;;;19.73;92.45
59682;BME280;45548;39.530;-9.118;2022-08-04T22:06:29;100906.50;;;19.73;92.85
59682;BME280;45548;39.530;-9.118;2022-08-04T22:08:55;100895.66;;;19.74;92.45
59682;BME280;45548;39.530;-9.118;2022-08-04T22:11:27;100899.13;;;19.75;92.51
59682;BME280;45548;39.530;-9.118;2022-08-04T22:13:59;100898.44;;;19.79;92.16
59682;BME280;45548;39.530;-9.118;2022-08-04T22:16:25;100902.13;;;19.78;91.88
59682;BME280;45548;39.530;-9.118;2022-08-04T22:18:51;100894.06;;;19.73;92.15
59682;BME280;45548;39.530;-9.118;2022-08-04T22:21:16;100899.59;;;19.72;92.12
59682;BME280;45548;39.530;-9.118;2022-08-04T22:23:42;100891.84;;;19.70;92.49
59682;BME280;45548;39.530;-9.118;2022-08-04T22:26:14;100895.53;;;19.69;92.57
59682;BME280;45548;39.530;-9.118;2022-08-04T22:28:40;100897.38;;;19.69;92.74
59682;BME280;45548;39.530;-9.118;2022-08-04T22:31:07;100883.19;;;19.63;92.60
59682;BME280;45548;39.530;-9.118;2022-08-04T22:33:32;100893.69;;;19.70;92.47
59682;BME280;45548;39.530;-9.118;2022-08-04T22:35:58;100892.88;;;19.69;92.73
59682;BME280;45548;39.530;-9.118;2022-08-04T22:38:23;100894.97;;;19.67;92.52
59682;BME280;45548;39.530;-9.118;2022-08-04T22:40:57;100888.38;;;19.70;92.66
59682;BME280;45548;39.530;-9.118;2022-08-04T22:43:23;100890.09;;;19.64;92.73
59682;BME280;45548;39.530;-9.118;2022-08-04T22:45:49;100886.56;;;19.58;93.37
59682;BME280;45548;39.530;-9.118;2022-08-04T22:48:14;100883.66;;;19.60;93.13
59682;BME280;45548;39.530;-9.118;2022-08-04T22:50:39;100880.78;;;19.61;93.06
59682;BME280;45548;39.530;-9.118;2022-08-04T22:53:05;100883.66;;;19.60;93.28
59682;BME280;45548;39.530;-9.118;2022-08-04T22:55:30;100891.63;;;19.60;93.31
59682;BME280;45548;39.530;-9.118;2022-08-04T22:57:56;100893.06;;;19.56;93.53
59682;BME280;45548;39.530;-9.118;2022-08-04T23:00:22;100888.97;;;19.60;93.34
59682;BME280;45548;39.530;-9.118;2022-08-04T23:02:47;100889.38;;;19.57;93.24
59682;BME280;45548;39.530;-9.118;2022-08-04T23:05:13;100878.78;;;19.57;92.94
59682;BME280;45548;39.530;-9.118;2022-08-04T23:07:38;100877.97;;;19.56;92.94
59682;BME280;45548;39.530;-9.118;2022-08-04T23:10:04;100879.59;;;19.57;93.04
59682;BME280;45548;39.530;-9.118;2022-08-04T23:12:30;100880.44;;;19.58;95.11
